Language selection

Features

My Weather Profile Weather Topics  | 

Queen Charlotte Sound: Past 24 Hour Conditions

 

South Hecate Strait - 46185

02:00 AM PDT 22 September 2019Buoy position: 52.43N 129.79W
Disclaimer

This table is a summary of hourly weather conditions for the past 24 hours.
Please note that these observations might not always be representative of weather conditions over their associated marine area.

Date / Time
(PDT)
Wind(knots) Wave height(m) Wave period(s) Pressure(kPa) Air tempC) Water tempC)
22 September 2019
2:00 NNW 13 gust 16 1.6 7.0 101.0 14 15
1:00 NNW 12 gust 13 1.8 7.0 101.0 14 14
0:00 WNW 8 gust 8 1.9 7.0 100.9 14 15
21 September 2019
23:00 W 6 gust 6 2.0 8.0 100.9 14 15
22:00 SSW 6 gust 8 2.0 7.0 100.9 14 15
21:00 S 8 gust 10 2.2 8.0 100.9 14 15
20:00 SSW 8 gust 10 2.2 7.0 100.9 15 15
19:00 SSW 10 gust 12 2.5 8.0 100.9 15 15
18:00 SSW 12 gust 13 2.4 8.0 100.8 15 15
17:00 SSW 10 gust 13 2.5 8.0 100.8 15 14
16:00 SSW 12 gust 16 2.6 8.0 100.8 15 14
15:00 SSW 13 gust 16 2.8 7.0 100.8 14 14
14:00 SW 12 gust 16 3.1 8.0 100.8 14 15
13:00 SSW 12 gust 13 3.1 8.0 100.7 14 15
12:00 S 25 gust 33 3.4 7.0 100.6 15 15
11:00 SSE 29 gust 35 3.2 7.0 100.6 15 15
10:00 SSE 29 gust 35 3.1 7.0 100.7 15 15
9:00 SSE 29 gust 35 2.8 7.0 100.7 15 15
8:00 S 25 gust 31 2.4 6.0 100.8 15 15
7:00 SSE 23 gust 27 2.2 6.0 100.9 15 15
6:00 SSE 23 gust 29 2.0 6.0 101.0 15 15
5:00 SSE 25 gust 31 1.8 5.0 101.1 15 15
4:00 SSE 23 gust 29 1.7 4.0 101.1 15 15
3:00 SSE 22 gust 27 1.6 5.0 101.3 15 15
2:00 SSE 23 gust 29 1.4 5.0 101.3 15 15

Zoom-in to make a selection

Map of Pacific - North Coast marine weather areas Middle Nomad - 46004 South Nomad - 46036 Dixon Entrance Central - 46145 South Moresby - 46147 Nanakwa Shoal - 46181 North Hecate Strait - 46183 North Nomad - 46184 South Hecate Strait - 46185 West Sea Otter - 46204 West Dixon Entrance - 46205 East Dellwood - 46207 West Moresby - 46208 Sartine Island Cape St.James Kindakun Rocks Langara Island Masset Municipal Airport Rose Spit Sandspit Airport Bella Bella Airport Bella Coola Airport Bonilla Island Cathedral Point Cumshewa Island Grey Islet Holland Rock Lucy Islands Lightstation Prince Rupert Airport
Legend:
buoy Buoy
land station Land Station

Pacific - North Coast Area

Another Region

What we are doing

Date modified: